Warning: Javascript must be enabled to use all the features on this page!


Page Loading - Please Wait...

Click to hideNews Bulletins

Peak Streamflow for the Nation

USGS 01362500 ESOPUS CREEK AT COLDBROOK NY

Ulster County, New York
Hydrologic Unit Code 02020006
Latitude  42°00'51", Longitude  74°16'14" NAD83
Drainage area 192  square miles
Gage datum 621.54 feet above NGVD29
Output formats
Table
Graph
Tab-separated file
peakfq (watstore) format
Reselect output format
Water
Year
Date Gage
Height
(feet)
Stream-
flow
(cfs)
1932 1932-03-31   7,6505
1933 1933-08-24 20.40 55,0005
1934 1934-09-17 10.05 6,4905
1935 1935-07-08 13.50 17,1005
1936 1936-03-12 17.90 38,5005
1937 1937-02-22 15.60 27,0005
1938 1937-10-23 15.05 24,2005
1939 1938-12-06 11.25 10,3005
1940 1940-03-31 11.88 12,1005
1941 1940-12-29 9.05 5,5305
1942 1941-12-24 15.15 24,8005
1943 1942-12-30 10.26 7,9705
1944 1943-11-09 11.24 10,3005
1945 1945-07-19 10.53 8,2705
1946 1946-03-09 10.04 7,1305
1947 1947-04-06 9.32 5,6405
1948 1948-03-22 12.39 13,9005
1949 1948-12-30 14.37 21,5005
1950 1950-04-05 9.81 6,5405
1951 1951-03-30 20.70 59,6005
1952 1952-07-10 15.46 26,3005
1953 1952-12-11 17.03 34,7005
1954 1954-03-02 9.74 6,4605
1955 1955-08-19 12.30 13,6005,9
1956 1955-10-15 20.00 54,0005
1957 1957-01-23 7.83 3,3905
1958 1957-12-21 18.98 46,9005
1959 1959-04-02 11.70 11,5005
1960 1959-10-24 14.66 22,6005
1961 1961-02-26 11.42 10,7005
1962 1962-04-07 11.12 9,8205
1963 1963-03-27 9.89 6,7605
1964 1964-03-10 10.71 8,7305
1965 1965-02-08 7.852 3,4805
1966 1966-03-25 8.58 4,5205
1967 1966-11-03 10.14 7,3205
1968 1968-05-29 11.73 11,6005
1969 1969-07-28 14.37 21,4005
1970 1970-04-02 9.68 6,7405
1971 1971-09-14 11.50 11,4005
1972 1972-06-22 12.10 13,1005,9
1973 1973-06-30 11.84 12,4005
1974 1973-12-21 15.67 27,4005
1975 1974-12-08 14.43 21,7005
1976 1976-01-27 13.10 15,4005
1977 1977-03-13 12.91 14,7005
1978 1977-11-08 16.32 30,0005
1979 1979-09-06 13.60 17,9005
1980 1980-03-21 21.94 65,3005
1981 1981-02-20 15.63 26,4005
1982 1982-06-06 9.89 6,8505
1983 1983-03-19 11.19 10,1005
1984 1984-04-05 17.75 37,4005
1985 1985-09-27 10.67 8,7005
1986 1986-03-15 11.93 12,2005
1987 1987-04-04 20.06 51,7005
1988 1987-10-28 9.53 6,2405
1989 1989-05-06 12.87 15,3005
1990 1989-10-20 11.47 10,9005
1991 1990-11-10 11.39 10,6005
1992 1992-03-11 10.58 8,4705
1993 1993-04-17 11.72 11,6005
1994 1993-11-28 14.21 20,3005
1995 1995-03-08 10.47 8,2005
1996 1996-01-19 20.33 53,6005
1997 1996-12-02 13.38 17,1005
1998 1998-06-14 12.46 13,9005
1999 1999-09-16 15.71 26,8005,9
2000 2000-06-07 11.01 9,5805
2001 2000-12-17 16.21 29,2005
2002 2002-03-27 7.34 2,4805
2003 2003-09-28 12.08 12,7005
2004 2004-09-18 13.59 17,9005
2005 2005-04-03 20.57 55,2005
2006 2006-06-28 15.52 25,9005
2007 2007-04-16 13.36 17,0005
2008 2008-03-08 12.11 12,8005
2009 2008-12-12 11.39 12,0005
2010 2010-01-25 15.85 28,9005
2011 2011-08-28 23.34 75,8005,9
2012 2012-09-18 14.65 22,3005
2013 2012-12-21 12.40 14,1005
2014 2014-05-17 11.40 11,2005
2015 2015-09-30 9.99 7,6905
2016 2016-02-25 12.39 14,1005
2017 2017-04-06 9.06 5,7905
2018 2017-10-30 12.23 13,6005
2019 2019-01-24 10.06 7,8405
2020 2019-11-01 11.34R 11,0005,R
?
  Peak Gage-Height Qualification Codes.
?
  Peak Streamflow Qualification Codes.